Current Weather

Porter County Municipal Airpo

Porter County Municipal Airpo, Indiana (KVPZ)

Report from: Thursday, May 19, 2022 1:56 PM CDT
Current time: Thursday, May 19, 2022 2:39 PM CDT

Nearby weather
Weather history
Weather forecast

Temperature27.2°C (81.0°F)
Heat index27.5°C (81.6°F)
Dew point13.9°C (57.0°F)
Winds 13 kts (6.7 m/s, 15 mph) Southwest (230°)
Wind gusts 22 kts (11.3 m/s, 25.3 mph)
Visibility10 mi. (16.1 km)
Clouds Sky clear
Altimeter29.66 in.Hg (1004 mB)
Relative humidity44 %
Density altitude1,926 ft. (587 m)
Sea-level pressure100.4 kPa (1004 mB, 29.65 in.Hg)
Remarks Fully automated report
Automated weather observing station with precipitation discriminator
Flight conditions Visual Meteorological Conditions
Raw dataKVPZ 191856Z AUTO 23013G22KT 10SM CLR 27/14 A2966 RMK AO2 SLP039 T02720139
An error has occurred. This application may no longer respond until reloaded. Reload 🗙